Time;durP1;ratioP1;P1;durP2;ratioP2;P2;SDS_P1;SDS_P2;PMS_P1;PMS_P2;Temp;Humidity;BMP_temperature;BMP_pressure;BME280_temperature;BME280_humidity;BME280_pressure;Samples;Min_cycle;Max_cycle;Signal;HPM_P1;HPM_P2
2023/09/25 00:01:50;;;;;;;10.55;3.00;;;;;;;11.95;100.00;101975.38;5096795;28;20028;-63
2023/09/25 00:04:16;;;;;;;7.72;3.10;;;;;;;11.92;100.00;101975.31;5096541;28;20032;-69
2023/09/25 00:06:41;;;;;;;11.25;3.30;;;;;;;11.85;100.00;101978.72;5096106;28;20032;-69
2023/09/25 00:09:07;;;;;;;10.20;3.20;;;;;;;11.86;100.00;101973.44;5096701;28;20093;-69
2023/09/25 00:11:32;;;;;;;9.57;3.20;;;;;;;11.92;100.00;101977.06;5096097;28;20028;-71
2023/09/25 00:13:58;;;;;;;9.65;3.13;;;;;;;11.83;100.00;101973.41;5096164;28;20486;-61
2023/09/25 00:16:23;;;;;;;10.00;3.20;;;;;;;11.84;100.00;101974.31;5096315;28;20064;-68
2023/09/25 00:18:49;;;;;;;9.60;3.30;;;;;;;11.73;100.00;101970.56;5095986;28;20020;-72
2023/09/25 00:21:14;;;;;;;9.63;3.20;;;;;;;11.67;100.00;101981.94;5096150;28;20097;-67
2023/09/25 00:23:40;;;;;;;12.35;3.13;;;;;;;11.67;100.00;101980.19;5095730;28;20047;-68
2023/09/25 00:26:06;;;;;;;9.43;3.20;;;;;;;11.64;100.00;101981.91;5095860;28;20556;-69
2023/09/25 00:28:32;;;;;;;10.60;3.20;;;;;;;11.68;100.00;101978.44;5096033;28;20406;-69
2023/09/25 00:30:58;;;;;;;12.32;3.45;;;;;;;11.62;100.00;101989.81;5095799;28;20024;-71
2023/09/25 00:33:24;;;;;;;8.55;3.30;;;;;;;11.51;100.00;101986.94;5095688;28;20032;-66
2023/09/25 00:35:49;;;;;;;9.73;3.40;;;;;;;11.44;100.00;101982.41;5095927;28;20090;-71
2023/09/25 00:38:14;;;;;;;11.63;3.40;;;;;;;11.43;100.00;101983.28;5095668;28;20028;-67
2023/09/25 00:40:40;;;;;;;11.65;3.30;;;;;;;11.48;100.00;101980.72;5095570;28;20021;-64
2023/09/25 00:43:05;;;;;;;10.40;3.40;;;;;;;11.50;100.00;101985.19;5095811;28;20390;-70
2023/09/25 00:45:35;;;;;;;11.18;3.30;;;;;;;11.47;100.00;101987.75;5095560;28;20483;-71
2023/09/25 00:48:00;;;;;;;10.55;3.40;;;;;;;11.40;100.00;101990.28;5091514;28;20028;-67
2023/09/25 00:50:29;;;;;;;10.32;3.42;;;;;;;11.40;100.00;101979.69;5095654;28;20505;-68
2023/09/25 00:52:55;;;;;;;10.20;3.25;;;;;;;11.41;100.00;101990.28;5095158;28;20059;-68
2023/09/25 00:55:21;;;;;;;13.85;3.38;;;;;;;11.40;100.00;101987.63;5095631;28;20109;-67
2023/09/25 00:57:48;;;;;;;11.13;3.30;;;;;;;11.39;100.00;101984.09;5095529;28;20489;-67
2023/09/25 01:00:14;;;;;;;8.80;3.10;;;;;;;11.33;100.00;101989.28;5095425;28;20398;-68
2023/09/25 01:02:40;;;;;;;11.10;3.40;;;;;;;11.40;100.00;101993.81;5095222;28;20028;-67
2023/09/25 01:05:08;;;;;;;11.57;3.20;;;;;;;11.32;100.00;101990.13;5095354;28;20028;-69
2023/09/25 01:07:36;;;;;;;11.20;3.35;;;;;;;11.32;100.00;101992.78;5095178;28;20028;-67
2023/09/25 01:10:17;;;;;;;11.07;3.20;;;;;;;11.31;100.00;101994.53;5090589;28;20092;-68
2023/09/25 01:12:48;;;;;;;10.73;3.50;;;;;;;11.29;100.00;101992.72;5092361;28;20036;-68
2023/09/25 01:15:14;;;;;;;11.93;3.30;;;;;;;11.27;100.00;101997.06;5095226;28;20050;-67
2023/09/25 01:17:39;;;;;;;11.23;3.22;;;;;;;11.22;100.00;102002.28;5095133;28;20471;-67
2023/09/25 01:20:11;;;;;;;12.32;3.30;;;;;;;11.16;100.00;102000.41;5095004;28;20032;-67
2023/09/25 01:22:36;;;;;;;11.68;3.40;;;;;;;11.14;100.00;101996.84;5091366;28;20112;-68
2023/09/25 01:25:03;;;;;;;10.10;3.28;;;;;;;11.04;100.00;101993.97;5094851;28;20028;-67
2023/09/25 01:27:28;;;;;;;11.95;3.47;;;;;;;10.95;100.00;101987.63;5094664;28;20024;-68
2023/09/25 01:29:54;;;;;;;12.55;3.40;;;;;;;10.99;100.00;101986.84;5094853;28;20020;-70
2023/09/25 01:32:19;;;;;;;10.98;3.22;;;;;;;10.90;100.00;101989.28;5094599;28;20025;-69
2023/09/25 01:34:45;;;;;;;12.13;3.40;;;;;;;10.88;100.00;101977.78;5094529;28;20080;-67
2023/09/25 01:37:10;;;;;;;12.10;3.50;;;;;;;10.82;100.00;101983.84;5094918;28;20356;-71
2023/09/25 01:39:35;;;;;;;10.57;3.45;;;;;;;10.86;100.00;101982.13;5094486;28;20028;-72
2023/09/25 01:42:03;;;;;;;8.88;3.30;;;;;;;10.86;100.00;101975.97;5090362;28;20056;-73
2023/09/25 01:44:28;;;;;;;13.90;3.53;;;;;;;10.89;100.00;101974.28;5094461;28;20035;-73
2023/09/25 01:46:55;;;;;;;12.07;3.30;;;;;;;10.93;100.00;101983.16;5094244;28;20028;-73
2023/09/25 01:49:20;;;;;;;10.02;3.30;;;;;;;10.82;100.00;101980.31;5094260;28;20035;-71
2023/09/25 01:51:45;;;;;;;11.10;3.47;;;;;;;10.78;100.00;101986.38;5094399;28;20107;-73
2023/09/25 01:54:10;;;;;;;10.20;3.58;;;;;;;10.76;100.00;101989.00;5094229;28;20056;-73
2023/09/25 01:56:36;;;;;;;11.90;3.50;;;;;;;10.70;100.00;101982.66;5094350;28;20036;-70
2023/09/25 01:59:01;;;;;;;13.60;3.70;;;;;;;10.68;100.00;101980.00;5093990;28;20046;-71
2023/09/25 02:01:27;;;;;;;10.60;3.40;;;;;;;10.56;100.00;101971.81;5094032;28;20031;-73
2023/09/25 02:03:53;;;;;;;10.25;3.40;;;;;;;10.59;100.00;101974.50;5094179;28;20043;-70
2023/09/25 02:06:18;;;;;;;11.13;3.45;;;;;;;10.54;100.00;101970.84;5093911;28;20028;-71
2023/09/25 02:08:44;;;;;;;13.43;3.90;;;;;;;10.45;100.00;101968.91;5094139;28;20059;-73
2023/09/25 02:11:09;;;;;;;13.10;3.75;;;;;;;10.50;100.00;101976.94;5094071;28;20370;-72
2023/09/25 02:13:35;;;;;;;12.25;3.80;;;;;;;10.52;100.00;101965.53;5093789;28;20036;-73
2023/09/25 02:16:00;;;;;;;12.02;3.72;;;;;;;10.52;100.00;101968.19;5092591;28;20137;-73
2023/09/25 02:18:25;;;;;;;10.63;3.50;;;;;;;10.46;100.00;101974.22;5093824;28;20080;-73
2023/09/25 02:20:51;;;;;;;12.85;3.60;;;;;;;10.40;100.00;101960.88;5093691;28;20032;-73
2023/09/25 02:23:16;;;;;;;13.95;3.90;;;;;;;10.43;100.00;101966.22;5093202;28;20047;-73
2023/09/25 02:25:42;;;;;;;15.43;3.80;;;;;;;10.40;100.00;101962.63;5092845;28;20024;-73
2023/09/25 02:28:08;;;;;;;13.05;3.80;;;;;;;10.40;100.00;101966.16;5093765;28;20043;-69
2023/09/25 02:30:33;;;;;;;15.02;3.92;;;;;;;10.39;100.00;101967.00;5093767;28;20107;-64
2023/09/25 02:32:59;;;;;;;11.32;3.65;;;;;;;10.28;100.00;101973.75;5093809;28;20176;-64
2023/09/25 02:35:25;;;;;;;13.18;3.67;;;;;;;10.35;100.00;101973.06;5093358;28;20043;-65
2023/09/25 02:37:50;;;;;;;10.82;3.70;;;;;;;10.29;100.00;101968.53;5093651;28;20032;-65
2023/09/25 02:40:16;;;;;;;10.43;3.33;;;;;;;10.30;100.00;101972.06;5093621;28;20027;-64
2023/09/25 02:42:42;;;;;;;11.60;3.90;;;;;;;10.26;100.00;101970.19;5093331;28;20051;-64
2023/09/25 02:45:08;;;;;;;12.52;3.90;;;;;;;10.30;100.00;101966.78;5093397;28;20028;-64
2023/09/25 02:47:33;;;;;;;13.02;3.60;;;;;;;10.26;100.00;101964.91;5093270;28;20099;-64
2023/09/25 02:50:00;;;;;;;11.65;3.63;;;;;;;10.26;100.00;101964.91;5093367;28;20480;-65
2023/09/25 02:52:25;;;;;;;13.05;3.92;;;;;;;10.20;100.00;101967.41;5093210;28;20036;-65
2023/09/25 02:54:51;;;;;;;12.93;4.03;;;;;;;10.22;100.00;101969.25;5093103;28;20024;-65
2023/09/25 02:57:16;;;;;;;14.20;3.88;;;;;;;10.24;100.00;101971.91;5092922;28;20382;-65
2023/09/25 02:59:41;;;;;;;13.75;3.90;;;;;;;10.22;100.00;101963.03;5093279;28;20040;-65
2023/09/25 03:02:07;;;;;;;13.77;3.70;;;;;;;10.21;100.00;101967.44;5092991;28;20031;-65
2023/09/25 03:04:32;;;;;;;14.05;4.00;;;;;;;10.12;100.00;101961.97;5093010;28;20559;-65
2023/09/25 03:06:58;;;;;;;11.60;3.70;;;;;;;10.09;100.00;101961.84;5093167;28;20030;-65
2023/09/25 03:09:24;;;;;;;11.60;3.90;;;;;;;10.09;100.00;101968.06;5092821;28;20471;-64
2023/09/25 03:11:49;;;;;;;13.02;3.70;;;;;;;10.11;100.00;101968.09;5092829;28;20479;-64
2023/09/25 03:14:14;;;;;;;12.32;3.90;;;;;;;10.08;100.00;101970.66;5093009;28;20038;-65
2023/09/25 03:16:41;;;;;;;11.98;3.67;;;;;;;10.11;100.00;101962.81;5092720;28;20074;-65
2023/09/25 03:19:06;;;;;;;12.25;3.80;;;;;;;10.16;100.00;101965.53;5093034;28;20039;-64
2023/09/25 03:21:31;;;;;;;12.50;3.80;;;;;;;10.19;100.00;101968.25;5092698;28;20028;-65
2023/09/25 03:23:57;;;;;;;14.18;4.30;;;;;;;10.19;100.00;101970.91;5092532;28;20059;-63
2023/09/25 03:26:22;;;;;;;14.20;4.00;;;;;;;10.22;100.00;101957.75;5093165;28;20024;-64
2023/09/25 03:28:48;;;;;;;12.77;3.80;;;;;;;10.21;100.00;101966.56;5091349;28;20411;-65
2023/09/25 03:31:13;;;;;;;13.40;3.90;;;;;;;10.26;100.00;101964.91;5092645;28;20360;-64
2023/09/25 03:33:40;;;;;;;11.68;3.50;;;;;;;10.29;100.00;101976.47;5093024;28;20028;-66
2023/09/25 03:36:07;;;;;;;12.77;3.83;;;;;;;10.20;100.00;101973.56;5095609;28;20438;-64
2023/09/25 03:38:33;;;;;;;11.55;3.63;;;;;;;10.21;100.00;101967.44;5092616;28;20131;-64
2023/09/25 03:40:58;;;;;;;12.13;3.60;;;;;;;10.20;100.00;101962.13;5096964;28;20056;-64
2023/09/25 03:43:24;;;;;;;12.35;3.75;;;;;;;10.18;100.00;101955.88;5096646;28;20523;-64
2023/09/25 03:45:49;;;;;;;12.23;3.88;;;;;;;10.26;100.00;101959.63;5096671;28;20036;-65
2023/09/25 03:48:14;;;;;;;11.45;3.70;;;;;;;10.35;100.00;101964.25;5096817;28;20059;-65
2023/09/25 03:50:40;;;;;;;14.20;3.80;;;;;;;10.41;100.00;101961.75;5096522;28;20028;-64
2023/09/25 03:53:05;;;;;;;12.55;3.90;;;;;;;10.37;100.00;101963.44;5096457;28;20032;-64
2023/09/25 03:55:31;;;;;;;13.57;4.15;;;;;;;10.38;100.00;101973.16;5096945;28;20070;-64
2023/09/25 03:57:56;;;;;;;13.05;3.67;;;;;;;10.32;100.00;101967.69;5096444;28;20071;-64
2023/09/25 04:00:24;;;;;;;13.18;3.90;;;;;;;10.36;100.00;101966.06;5096574;28;20020;-64
2023/09/25 04:02:50;;;;;;;13.18;3.70;;;;;;;10.36;100.00;101966.94;5096624;28;20039;-64
2023/09/25 04:05:15;;;;;;;13.18;3.70;;;;;;;10.34;100.00;101965.09;5096339;28;20024;-64
2023/09/25 04:07:41;;;;;;;12.80;3.88;;;;;;;10.29;100.00;101979.09;5096424;28;20442;-64
2023/09/25 04:10:07;;;;;;;14.07;4.18;;;;;;;10.24;100.00;101971.91;5096746;28;20111;-65
2023/09/25 04:12:36;;;;;;;13.60;3.88;;;;;;;10.29;100.00;101980.84;5091971;28;20032;-65
2023/09/25 04:15:02;;;;;;;12.23;3.92;;;;;;;10.26;100.00;101975.47;5096438;28;20032;-65
2023/09/25 04:17:28;;;;;;;12.85;3.95;;;;;;;10.25;100.00;101976.31;5096215;28;20034;-64
2023/09/25 04:19:53;;;;;;;14.85;4.10;;;;;;;10.23;100.00;101978.06;5096019;28;20115;-64
2023/09/25 04:22:20;;;;;;;15.02;4.05;;;;;;;10.22;100.00;101973.63;5095987;28;20554;-65
2023/09/25 04:24:46;;;;;;;12.23;3.90;;;;;;;10.27;100.00;101975.50;5096172;28;20028;-65
2023/09/25 04:27:11;;;;;;;13.07;4.10;;;;;;;10.23;100.00;101975.41;5096168;28;20092;-64
2023/09/25 04:29:38;;;;;;;13.70;3.92;;;;;;;10.27;100.00;101974.63;5096052;28;20458;-64
2023/09/25 04:32:03;;;;;;;13.23;3.90;;;;;;;10.20;100.00;101978.88;5091819;28;20406;-65
2023/09/25 04:34:29;;;;;;;11.82;3.70;;;;;;;10.25;100.00;101976.31;5096025;28;20028;-65
2023/09/25 04:36:54;;;;;;;11.55;3.83;;;;;;;10.33;100.00;101977.41;5095959;28;20032;-64
2023/09/25 04:39:20;;;;;;;12.90;3.70;;;;;;;10.35;100.00;101980.13;5095653;28;20082;-64
2023/09/25 04:41:46;;;;;;;16.65;4.13;;;;;;;10.38;100.00;101986.38;5095546;28;20051;-65
2023/09/25 04:44:12;;;;;;;13.55;3.97;;;;;;;10.43;100.00;101990.00;5095742;28;20028;-65
2023/09/25 04:46:37;;;;;;;13.38;4.00;;;;;;;10.51;100.00;101984.88;5095481;28;20036;-65
2023/09/25 04:49:06;;;;;;;12.05;3.70;;;;;;;10.57;100.00;101981.50;5094248;28;20032;-65
2023/09/25 04:51:34;;;;;;;14.98;3.95;;;;;;;10.52;100.00;101980.53;5095562;28;20432;-64
2023/09/25 04:54:00;;;;;;;12.77;3.80;;;;;;;10.49;100.00;101985.75;5095298;28;20122;-64
2023/09/25 04:56:29;;;;;;;12.63;3.83;;;;;;;10.49;100.00;101978.69;5095535;28;20067;-64
2023/09/25 04:58:55;;;;;;;16.23;4.10;;;;;;;10.52;100.00;101983.16;5095525;28;20107;-65
2023/09/25 05:01:21;;;;;;;11.55;3.63;;;;;;;10.57;100.00;101987.69;5095220;28;20075;-65
2023/09/25 05:03:46;;;;;;;12.13;3.85;;;;;;;10.63;100.00;101981.66;5095114;28;20027;-69
2023/09/25 05:06:12;;;;;;;15.70;3.78;;;;;;;10.63;100.00;101979.00;5095377;28;20052;-71
2023/09/25 05:08:38;;;;;;;12.55;3.83;;;;;;;10.68;100.00;101987.03;5095091;28;20114;-69
2023/09/25 05:11:05;;;;;;;14.98;4.20;;;;;;;10.67;100.00;101987.91;5090871;28;20028;-72
2023/09/25 05:13:31;;;;;;;13.18;3.90;;;;;;;10.63;100.00;101982.53;5095041;28;20040;-68
2023/09/25 05:15:57;;;;;;;14.13;3.80;;;;;;;10.64;100.00;101978.13;5095013;28;20040;-69
2023/09/25 05:18:22;;;;;;;16.45;4.50;;;;;;;10.67;100.00;101988.78;5094852;28;20107;-66
2023/09/25 05:20:48;;;;;;;13.82;3.92;;;;;;;10.67;100.00;101988.78;5095026;28;20619;-69
2023/09/25 05:23:14;;;;;;;13.00;3.60;;;;;;;10.68;100.00;101995.84;5094708;28;20052;-71
2023/09/25 05:25:39;;;;;;;14.07;4.00;;;;;;;10.70;100.00;101993.25;5094788;28;20391;-70
2023/09/25 05:28:05;;;;;;;14.00;3.97;;;;;;;10.64;100.00;101999.28;5095130;28;20028;-72
2023/09/25 05:30:31;;;;;;;14.95;3.83;;;;;;;10.64;100.00;101999.28;5094544;28;20451;-72
2023/09/25 05:32:56;;;;;;;15.07;4.10;;;;;;;10.62;100.00;101998.38;5094567;28;20394;-72
2023/09/25 05:35:22;;;;;;;13.43;3.80;;;;;;;10.60;100.00;102000.06;5094723;28;20047;-72
2023/09/25 05:37:48;;;;;;;12.65;3.78;;;;;;;10.59;100.00;102007.13;5094003;28;20035;-61
2023/09/25 05:40:15;;;;;;;13.13;3.85;;;;;;;10.61;100.00;102001.88;5082531;28;20107;-66
2023/09/25 05:42:45;;;;;;;12.73;3.70;;;;;;;10.61;100.00;101994.81;5082876;28;20017;-67
2023/09/25 05:45:12;;;;;;;12.00;3.60;;;;;;;10.68;100.00;102006.44;5085084;28;20039;-64
2023/09/25 05:47:37;;;;;;;16.75;3.90;;;;;;;10.72;100.00;102010.94;5091924;28;20036;-68
2023/09/25 05:50:06;;;;;;;17.30;4.10;;;;;;;10.76;100.00;102003.94;5092819;28;20032;-67
2023/09/25 05:52:33;;;;;;;13.25;3.70;;;;;;;10.77;100.00;102006.63;5094009;28;20040;-67
2023/09/25 05:54:58;;;;;;;11.57;3.60;;;;;;;10.81;100.00;102003.19;5093058;28;20157;-72
2023/09/25 05:57:24;;;;;;;13.75;3.88;;;;;;;10.82;100.00;101999.69;5092371;28;20074;-67
2023/09/25 05:59:49;;;;;;;14.27;3.83;;;;;;;10.89;100.00;101999.81;5093789;28;20454;-67
2023/09/25 06:02:14;;;;;;;13.57;3.70;;;;;;;10.96;100.00;102001.75;5089249;28;20032;-66
2023/09/25 06:04:40;;;;;;;12.43;3.60;;;;;;;11.02;100.00;102015.09;5093679;28;20024;-70
2023/09/25 06:07:06;;;;;;;11.02;3.70;;;;;;;11.07;100.00;102015.22;5089699;28;20032;-74
2023/09/25 06:09:32;;;;;;;12.48;3.75;;;;;;;11.13;100.00;102018.88;5093924;28;20099;-76
2023/09/25 06:11:58;;;;;;;14.57;3.80;;;;;;;11.20;100.00;102016.34;5093673;28;20025;-76
2023/09/25 06:14:24;;;;;;;11.95;3.60;;;;;;;11.25;100.00;102017.34;5093534;28;20036;-73
2023/09/25 06:16:50;;;;;;;13.10;3.85;;;;;;;11.31;100.00;102014.81;5093727;28;20467;-67
2023/09/25 06:19:18;;;;;;;13.85;3.90;;;;;;;11.35;100.00;102008.72;5086715;28;20474;-69
2023/09/25 06:21:44;;;;;;;13.25;3.67;;;;;;;11.41;100.00;102011.47;5092149;28;20545;-76
2023/09/25 06:24:09;;;;;;;13.38;4.07;;;;;;;11.45;100.00;102015.97;5093476;28;20056;-72
2023/09/25 06:26:46;;;;;;;12.90;3.70;;;;;;;11.50;100.00;102016.97;5093469;28;20074;-72
2023/09/25 06:29:13;;;;;;;14.65;3.90;;;;;;;11.54;100.00;102019.66;5093434;28;20142;-70
2023/09/25 06:31:39;;;;;;;12.43;3.90;;;;;;;11.60;100.00;102017.13;5092089;28;20490;-71
2023/09/25 06:34:07;;;;;;;12.43;3.70;;;;;;;11.66;100.00;102014.59;5088886;28;20040;-63
2023/09/25 06:36:33;;;;;;;11.70;3.50;;;;;;;11.74;100.00;102015.63;5093171;28;20077;-68
2023/09/25 06:38:59;;;;;;;14.55;3.90;;;;;;;11.81;100.00;102011.31;5093119;28;20047;-67
2023/09/25 06:41:24;;;;;;;12.38;3.75;;;;;;;11.89;100.00;102020.31;5093489;28;20052;-66
2023/09/25 06:43:50;;;;;;;12.80;3.90;;;;;;;11.96;100.00;102016.06;5092090;28;20048;-69
2023/09/25 06:46:15;;;;;;;13.23;3.75;;;;;;;12.01;100.00;102020.56;5091961;28;20032;-71
2023/09/25 06:48:41;;;;;;;12.63;3.80;;;;;;;12.10;100.00;102022.47;5092815;28;20028;-74
2023/09/25 06:51:06;;;;;;;13.57;3.70;;;;;;;12.18;100.00;102022.59;5092843;28;20107;-66
2023/09/25 06:53:31;;;;;;;12.57;3.70;;;;;;;12.26;100.00;102020.97;5093389;28;20090;-64
2023/09/25 06:55:57;;;;;;;12.52;3.70;;;;;;;12.37;100.00;102023.78;5092904;28;20039;-62
2023/09/25 06:58:23;;;;;;;14.80;3.88;;;;;;;12.45;100.00;102027.47;5092780;28;20039;-64
2023/09/25 07:00:50;;;;;;;15.55;3.88;;;;;;;12.53;100.00;102022.25;5093042;28;20052;-63
2023/09/25 07:03:16;;;;;;;13.27;3.88;;;;;;;12.61;100.00;102017.97;5092988;28;20032;-64
2023/09/25 07:05:42;;;;;;;11.50;3.63;;;;;;;12.72;100.00;102021.63;5093232;28;20435;-64
2023/09/25 07:08:08;;;;;;;14.15;3.67;;;;;;;12.81;100.00;102015.56;5092496;28;20020;-64
2023/09/25 07:10:33;;;;;;;13.18;3.63;;;;;;;12.88;100.00;102011.25;5092543;28;20027;-65
2023/09/25 07:12:58;;;;;;;14.63;3.53;;;;;;;13.01;100.00;102009.66;5092997;28;20488;-64
2023/09/25 07:15:24;;;;;;;12.30;3.28;;;;;;;13.10;100.00;102017.72;5093022;28;20028;-65
2023/09/25 07:17:49;;;;;;;14.75;3.80;;;;;;;13.20;100.00;102016.97;5092778;28;20494;-62
2023/09/25 07:20:14;;;;;;;15.23;3.60;;;;;;;13.34;100.00;102016.22;5092760;28;20090;-64
2023/09/25 07:22:41;;;;;;;12.57;3.30;;;;;;;13.50;100.00;102022.63;5092665;28;20036;-64
2023/09/25 07:25:07;;;;;;;12.15;3.30;;;;;;;13.63;100.00;102024.56;5092809;28;20062;-64
2023/09/25 07:27:33;;;;;;;12.02;3.40;;;;;;;13.73;100.00;102020.22;5092489;28;20435;-63
2023/09/25 07:29:59;;;;;;;13.90;3.38;;;;;;;13.83;100.00;102027.41;5093030;28;20027;-64
2023/09/25 07:32:25;;;;;;;13.07;3.30;;;;;;;13.98;100.00;102017.81;5092808;28;20044;-65
2023/09/25 07:34:54;;;;;;;11.00;3.33;;;;;;;14.06;100.00;102014.31;5091587;28;20539;-64
2023/09/25 07:37:19;;;;;;;10.57;3.20;;;;;;;14.17;100.00;102019.75;5088927;28;20115;-62
2023/09/25 07:39:44;;;;;;;11.57;3.20;;;;;;;14.27;100.00;102012.72;5092484;28;20474;-74
2023/09/25 07:42:10;;;;;;;10.52;3.20;;;;;;;14.36;100.00;102012.81;5092358;28;20032;-64
2023/09/25 07:44:36;;;;;;;12.27;3.30;;;;;;;14.43;100.00;102013.72;5091475;28;20032;-67
2023/09/25 07:47:06;;;;;;;12.38;3.50;;;;;;;14.48;100.00;102018.19;5092619;28;20032;-66
2023/09/25 07:49:44;;;;;;;10.15;3.00;;;;;;;14.57;100.00;102012.03;5092914;28;20024;-69
2023/09/25 07:52:15;;;;;;;12.68;3.40;;;;;;;14.63;100.00;102012.13;5092432;28;20036;-65
2023/09/25 07:54:43;;;;;;;11.45;3.25;;;;;;;14.70;100.00;102001.53;5092476;28;20038;-68
2023/09/25 07:57:11;;;;;;;8.85;3.00;;;;;;;14.79;100.00;102006.88;5092433;28;20425;-67
2023/09/25 07:59:37;;;;;;;14.18;4.10;;;;;;;14.87;100.00;102012.25;5092510;28;20059;-62
2023/09/25 08:02:02;;;;;;;12.40;3.72;;;;;;;14.91;100.00;102014.03;5092828;28;20525;-64
2023/09/25 08:04:27;;;;;;;12.52;3.15;;;;;;;14.95;100.00;102014.06;5092146;28;20028;-65
2023/09/25 08:06:53;;;;;;;11.73;3.25;;;;;;;15.02;100.00;102014.09;5092408;28;20102;-71
2023/09/25 08:09:19;;;;;;;10.13;2.90;;;;;;;15.11;100.00;102025.66;5087971;28;20016;-64
2023/09/25 08:11:45;;;;;;;11.07;3.20;;;;;;;15.13;100.00;102029.25;5087028;28;20040;-64
2023/09/25 08:14:11;;;;;;;11.23;3.15;;;;;;;15.15;100.00;102022.13;5092256;28;20032;-65
2023/09/25 08:16:38;;;;;;;9.57;3.10;;;;;;;15.16;100.00;102034.56;5092011;28;20123;-63
2023/09/25 08:19:03;;;;;;;12.20;3.10;;;;;;;15.13;100.00;102023.00;5091329;28;20095;-66
2023/09/25 08:21:29;;;;;;;14.48;3.10;;;;;;;15.19;100.00;102024.81;5095321;28;20546;-68
2023/09/25 08:23:55;;;;;;;12.50;3.13;;;;;;;15.18;100.00;102031.91;5095384;28;20055;-68
2023/09/25 08:26:21;;;;;;;10.55;3.20;;;;;;;15.16;100.00;102031.03;5095699;28;20035;-74
2023/09/25 08:28:46;;;;;;;11.02;3.25;;;;;;;15.22;100.00;102028.38;5095746;28;20115;-71
2023/09/25 08:31:12;;;;;;;11.43;3.35;;;;;;;15.31;100.00;102019.53;5095660;28;20060;-70
2023/09/25 08:33:39;;;;;;;11.52;3.22;;;;;;;15.40;100.00;102021.34;5094891;28;20445;-73
2023/09/25 08:36:08;;;;;;;13.52;3.30;;;;;;;15.54;100.00;102014.28;5091765;28;20491;-73
2023/09/25 08:38:34;;;;;;;13.30;3.30;;;;;;;15.89;100.00;102005.47;5091057;28;20038;-73
2023/09/25 08:40:59;;;;;;;12.38;3.63;;;;;;;16.15;100.00;102008.16;5094840;28;20107;-65
2023/09/25 08:43:26;;;;;;;11.55;3.20;;;;;;;16.33;100.00;102003.69;5095116;28;20032;-64
2023/09/25 08:45:52;;;;;;;10.30;3.13;;;;;;;16.30;100.00;102001.91;5095331;28;20036;-64
2023/09/25 08:48:17;;;;;;;12.65;3.10;;;;;;;16.43;100.00;102004.56;5095404;28;20141;-62
2023/09/25 08:50:44;;;;;;;11.13;3.17;;;;;;;16.48;100.00;101998.31;5095694;28;20106;-66
2023/09/25 08:53:09;;;;;;;11.50;3.00;;;;;;;16.52;100.00;101997.41;5095396;28;20032;-64
2023/09/25 08:55:35;;;;;;;11.65;3.30;;;;;;;16.63;100.00;102000.06;5095003;28;20032;-64
2023/09/25 08:58:01;;;;;;;14.15;3.30;;;;;;;16.97;100.00;101991.09;5095307;28;20363;-60
2023/09/25 09:00:29;;;;;;;13.88;3.42;;;;;;;17.42;100.00;102005.13;5095067;28;20039;-65
2023/09/25 09:02:54;;;;;;;12.25;3.30;;;;;;;17.50;100.00;101991.69;5094994;28;20035;-65
2023/09/25 09:05:19;;;;;;;10.80;3.20;;;;;;;17.85;100.00;102001.25;5095436;28;20032;-65
2023/09/25 09:08:03;;;;;;;10.40;3.17;;;;;;;18.46;100.00;102008.78;5093558;28;20134;-65
2023/09/25 09:10:32;;;;;;;11.18;3.30;;;;;;;18.64;100.00;102004.16;5095090;28;20020;-64
2023/09/25 09:12:58;;;;;;;10.98;3.10;;;;;;;19.01;100.00;102008.22;5095061;28;20143;-65
2023/09/25 09:15:28;;;;;;;12.27;3.20;;;;;;;19.26;100.00;102012.34;5095031;28;20483;-65
2023/09/25 09:17:57;;;;;;;10.27;2.88;;;;;;;19.42;100.00;102004.97;5094799;28;20054;-65
2023/09/25 09:20:36;;;;;;;10.15;2.90;;;;;;;19.62;100.00;102009.16;5094724;28;20028;-62
2023/09/25 09:23:02;;;;;;;13.90;3.13;;;;;;;19.30;100.00;101998.00;5094581;28;20108;-63
2023/09/25 09:25:29;;;;;;;11.38;3.30;;;;;;;19.12;100.00;102006.25;5093068;28;20456;-63
2023/09/25 09:27:58;;;;;;;13.70;3.13;;;;;;;18.78;100.00;102010.22;5090320;28;20039;-62
2023/09/25 09:30:24;;;;;;;9.50;3.10;;;;;;;18.73;100.00;102008.53;5093756;28;20030;-62
2023/09/25 09:32:50;;;;;;;10.90;3.10;;;;;;;18.58;100.00;102010.44;5093789;28;20032;-64
2023/09/25 09:35:26;;;;;;;15.02;3.83;;;;;;;18.47;100.00;102001.63;5089993;28;20032;-63
2023/09/25 09:37:52;;;;;;;13.50;3.22;;;;;;;18.99;100.00;102005.56;5093132;28;20599;-62
2023/09/25 09:40:19;;;;;;;10.23;3.00;;;;;;;19.89;100.00;101999.81;5094832;28;20134;-64
2023/09/25 09:42:47;;;;;;;11.75;3.20;;;;;;;20.41;100.00;102014.13;5094250;28;20036;-61
2023/09/25 09:45:13;;;;;;;10.02;3.10;;;;;;;20.51;100.00;101994.25;5094082;28;20032;-62
2023/09/25 09:47:42;;;;;;;12.48;3.10;;;;;;;20.29;100.00;102009.00;5093988;28;20020;-62
2023/09/25 09:50:09;;;;;;;10.52;3.08;;;;;;;20.36;100.00;102010.66;5094013;28;20085;-62
2023/09/25 09:52:36;;;;;;;8.88;2.95;;;;;;;20.66;100.00;102008.31;5094227;28;20184;-62
2023/09/25 09:55:04;;;;;;;12.30;3.17;;;;;;;20.88;100.00;102017.75;5094078;28;20467;-61
2023/09/25 09:57:30;;;;;;;9.60;2.80;;;;;;;20.78;100.00;102017.94;5094206;28;20375;-64
2023/09/25 09:59:56;;;;;;;11.65;3.00;;;;;;;20.61;100.00;102020.97;5090751;28;20032;-66
2023/09/25 10:02:21;;;;;;;9.07;2.83;;;;;;;20.57;100.00;102019.25;5094050;28;20416;-63
2023/09/25 10:04:47;;;;;;;9.95;2.92;;;;;;;20.96;100.00;102019.41;5094349;28;20043;-65
2023/09/25 10:07:12;;;;;;;12.88;3.20;;;;;;;21.67;100.00;102020.53;5089798;28;20036;-65
2023/09/25 10:09:56;;;;;;;13.15;2.97;;;;;;;22.07;100.00;102019.59;5093875;28;20021;-70
2023/09/25 10:12:36;;;;;;;11.88;3.10;;;;;;;22.60;100.00;102017.31;5090883;28;20103;-71
2023/09/25 10:15:04;;;;;;;10.45;2.80;;;;;;;22.85;97.12;102019.31;5094186;28;20024;-70
2023/09/25 10:17:39;;;;;;;8.75;2.90;;;;;;;22.94;100.00;102018.19;5093950;28;20101;-72
2023/09/25 10:20:05;;;;;;;9.73;2.80;;;;;;;23.11;96.17;102024.00;5093674;28;20031;-74
2023/09/25 10:22:30;;;;;;;13.15;2.72;;;;;;;22.95;99.29;102015.44;5093877;28;20063;-67
2023/09/25 10:25:05;;;;;;;10.07;2.80;;;;;;;22.60;97.88;102008.34;5092367;28;20052;-69
2023/09/25 10:27:34;;;;;;;7.47;2.63;;;;;;;22.56;89.83;102012.06;5093691;28;20032;-72
2023/09/25 10:30:06;;;;;;;9.63;2.75;;;;;;;22.58;100.00;102011.06;5093453;28;20501;-68
2023/09/25 10:32:32;;;;;;;10.07;2.80;;;;;;;22.49;88.38;102011.34;5093619;28;20449;-71
2023/09/25 10:35:17;;;;;;;6.95;2.63;;;;;;;22.32;98.93;102018.94;5093680;28;20144;-71
2023/09/25 10:38:25;;;;;;;9.38;2.60;;;;;;;23.08;89.65;102026.75;5089153;28;20031;-70
2023/09/25 10:40:54;;;;;;;10.05;2.72;;;;;;;22.72;87.31;102017.91;5093624;28;20028;-68
2023/09/25 10:43:21;;;;;;;10.93;2.80;;;;;;;22.60;86.87;102016.41;5093006;28;20027;-70
2023/09/25 10:45:48;;;;;;;9.35;2.80;;;;;;;22.58;89.71;102008.38;5093121;28;20421;-68
2023/09/25 10:48:14;;;;;;;9.38;2.80;;;;;;;23.05;86.50;102015.16;5089113;28;20023;-67
2023/09/25 10:50:47;;;;;;;10.63;2.90;;;;;;;23.55;87.20;102014.56;5092931;28;20051;-68
2023/09/25 10:53:13;;;;;;;8.27;2.70;;;;;;;24.19;84.28;102006.19;5089149;28;20040;-65
2023/09/25 10:55:40;;;;;;;7.50;2.60;;;;;;;24.27;83.77;102005.91;5093098;28;20028;-65
2023/09/25 10:58:07;;;;;;;8.63;2.47;;;;;;;24.43;73.84;102003.56;5093224;28;20024;-64
2023/09/25 11:00:34;;;;;;;8.18;2.65;;;;;;;24.79;73.95;102000.50;5093001;28;20162;-65
2023/09/25 11:03:02;;;;;;;7.53;2.60;;;;;;;24.39;70.35;102013.56;5092793;28;20035;-65
2023/09/25 11:05:29;;;;;;;8.32;2.65;;;;;;;23.50;71.73;102018.31;5093134;28;20115;-65
2023/09/25 11:07:55;;;;;;;8.18;2.58;;;;;;;23.67;77.76;102017.75;5091757;28;20545;-66
2023/09/25 11:10:20;;;;;;;8.30;2.60;;;;;;;24.41;79.29;102010.84;5093044;28;20060;-64